createdAt,value
2018-05-04T00:00:54.772Z,10.77
2018-05-04T00:03:22.233Z,11.30
2018-05-04T00:05:49.683Z,9.87
2018-05-04T00:08:17.309Z,9.03
2018-05-04T00:10:44.768Z,10.07
2018-05-04T00:13:12.206Z,9.33
2018-05-04T00:15:39.654Z,9.87
2018-05-04T00:18:07.104Z,10.00
2018-05-04T00:20:35.321Z,9.00
2018-05-04T00:23:02.765Z,7.93
2018-05-04T00:25:30.228Z,8.83
2018-05-04T00:27:57.675Z,8.30
2018-05-04T00:30:25.135Z,8.03
2018-05-04T00:32:52.578Z,7.77
2018-05-04T00:35:20.029Z,7.83
2018-05-04T00:37:47.475Z,8.27
2018-05-04T00:40:15.700Z,8.00
2018-05-04T00:42:43.138Z,7.67
2018-05-04T00:45:10.595Z,7.20
2018-05-04T00:47:38.040Z,7.90
2018-05-04T00:50:05.500Z,8.20
2018-05-04T00:52:32.966Z,6.60
2018-05-04T00:55:00.405Z,8.20
2018-05-04T00:57:27.865Z,7.87
2018-05-04T00:59:55.316Z,7.47
2018-05-04T01:02:22.773Z,8.00
2018-05-04T01:04:50.227Z,8.20
2018-05-04T01:07:17.675Z,8.53
2018-05-04T01:09:45.900Z,7.13
2018-05-04T01:12:13.346Z,7.53
2018-05-04T01:14:40.808Z,8.80
2018-05-04T01:17:08.260Z,6.73
2018-05-04T01:19:35.712Z,7.60
2018-05-04T01:22:03.160Z,8.33
2018-05-04T01:24:30.598Z,7.20
2018-05-04T01:26:58.063Z,7.67
2018-05-04T01:29:25.507Z,7.57
2018-05-04T01:31:53.723Z,8.10
2018-05-04T01:34:21.173Z,7.70
2018-05-04T01:36:48.623Z,7.37
2018-05-04T01:39:16.071Z,7.53
2018-05-04T01:41:43.530Z,7.50
2018-05-04T01:44:10.967Z,8.10
2018-05-04T01:46:39.185Z,7.27
2018-05-04T01:49:06.627Z,7.47
2018-05-04T01:51:34.084Z,7.57
2018-05-04T01:54:01.533Z,7.20
2018-05-04T01:56:28.975Z,6.60
2018-05-04T01:58:56.433Z,8.10
2018-05-04T02:01:23.867Z,6.83
2018-05-04T02:03:52.083Z,7.33
2018-05-04T02:06:20.312Z,7.70
2018-05-04T02:08:48.523Z,7.70
2018-05-04T02:11:15.979Z,7.93
2018-05-04T02:13:43.427Z,8.20
2018-05-04T02:16:10.888Z,8.00
2018-05-04T02:18:38.347Z,8.97
2018-05-04T02:21:05.795Z,8.07
2018-05-04T02:23:33.243Z,7.93
2018-05-04T02:26:01.476Z,8.83
2018-05-04T02:28:28.923Z,7.93
2018-05-04T02:30:56.395Z,8.47
2018-05-04T02:33:23.846Z,8.10
2018-05-04T02:35:51.307Z,8.17
2018-05-04T02:38:18.759Z,7.73
2018-05-04T02:40:46.216Z,7.90
2018-05-04T02:43:13.669Z,7.30
2018-05-04T02:45:41.121Z,8.03
2018-05-04T02:48:08.576Z,7.90
2018-05-04T02:50:36.037Z,8.40
2018-05-04T02:53:03.489Z,7.83
2018-05-04T02:55:30.962Z,7.97
2018-05-04T02:57:58.393Z,8.03
2018-05-04T03:00:25.839Z,8.33
2018-05-04T03:02:53.289Z,8.30
2018-05-04T03:05:20.748Z,8.43
2018-05-04T03:07:48.205Z,7.90
2018-05-04T03:10:15.656Z,8.40
2018-05-04T03:12:43.095Z,7.37
2018-05-04T03:15:11.315Z,7.67
2018-05-04T03:17:38.776Z,7.40
2018-05-04T03:20:06.223Z,6.90
2018-05-04T03:22:33.682Z,7.70
2018-05-04T03:25:01.145Z,8.13
2018-05-04T03:27:28.599Z,7.83
2018-05-04T03:29:56.052Z,8.97
2018-05-04T03:32:23.516Z,7.40
2018-05-04T03:34:50.961Z,7.77
2018-05-04T03:37:19.187Z,8.67
2018-05-04T03:39:47.448Z,8.73
2018-05-04T03:42:14.916Z,8.80
2018-05-04T03:44:42.364Z,8.27
2018-05-04T03:47:09.848Z,8.00
2018-05-04T03:49:38.069Z,8.47
2018-05-04T03:52:05.613Z,7.53
2018-05-04T03:54:32.979Z,8.50
2018-05-04T03:57:12.278Z,8.63
2018-05-04T03:59:52.432Z,10.13
2018-05-04T04:02:31.755Z,9.70
2018-05-04T04:04:59.167Z,8.17
2018-05-04T04:07:26.619Z,10.17
2018-05-04T04:09:54.068Z,9.57
2018-05-04T04:12:21.520Z,8.50
2018-05-04T04:14:48.964Z,7.60
2018-05-04T04:17:16.420Z,8.40
2018-05-04T04:19:43.877Z,9.20
2018-05-04T04:22:11.349Z,10.00
2018-05-04T04:24:38.802Z,8.93
2018-05-04T04:27:06.263Z,8.93
2018-05-04T04:29:33.716Z,9.27
2018-05-04T04:32:01.173Z,11.43
2018-05-04T04:34:28.624Z,10.13
2018-05-04T04:36:56.082Z,9.73
2018-05-04T04:39:23.516Z,11.80
2018-05-04T04:41:50.972Z,11.77
2018-05-04T04:44:19.183Z,11.33
2018-05-04T04:46:46.651Z,10.90
2018-05-04T04:49:14.104Z,11.90
2018-05-04T04:51:41.579Z,12.83
2018-05-04T04:54:09.024Z,13.07
2018-05-04T04:56:36.479Z,11.23
2018-05-04T04:59:03.947Z,11.13
2018-05-04T05:01:31.408Z,11.70
2018-05-04T05:03:58.860Z,11.50
2018-05-04T05:06:26.310Z,11.83
2018-05-04T05:08:53.771Z,12.17
2018-05-04T05:11:21.219Z,12.27
2018-05-04T05:13:48.684Z,11.80
2018-05-04T05:16:16.130Z,11.03
2018-05-04T05:18:43.594Z,11.53
2018-05-04T05:21:10.997Z,11.60
2018-05-04T05:23:38.504Z,11.20
2018-05-04T05:26:05.944Z,10.50
2018-05-04T05:28:34.179Z,11.47
2018-05-04T05:31:02.394Z,11.33
2018-05-04T05:33:29.861Z,10.57
2018-05-04T05:35:57.308Z,11.73
2018-05-04T05:38:24.777Z,12.50
2018-05-04T05:40:52.227Z,11.37
2018-05-04T05:43:19.739Z,12.80
2018-05-04T05:45:47.956Z,11.20
2018-05-04T05:48:15.415Z,11.90
2018-05-04T05:50:42.867Z,12.30
2018-05-04T05:53:10.329Z,10.67
2018-05-04T05:55:37.780Z,12.60
2018-05-04T05:58:05.295Z,11.20
2018-05-04T06:00:32.711Z,12.00
2018-05-04T06:03:00.169Z,11.00
2018-05-04T06:05:27.636Z,11.83
2018-05-04T06:07:55.101Z,11.07
2018-05-04T06:10:22.564Z,13.93
2018-05-04T06:12:50.031Z,11.87
2018-05-04T06:15:17.494Z,10.83
2018-05-04T06:17:44.956Z,12.33
2018-05-04T06:20:13.184Z,10.30
2018-05-04T06:22:40.641Z,11.60
2018-05-04T06:25:08.179Z,10.70
2018-05-04T06:27:35.567Z,11.13
2018-05-04T06:30:03.068Z,11.20
2018-05-04T06:32:31.298Z,13.00
2018-05-04T06:34:58.748Z,11.97
2018-05-04T06:37:26.278Z,12.33
2018-05-04T06:39:53.758Z,10.53
2018-05-04T06:42:21.212Z,11.33
2018-05-04T06:44:48.669Z,11.77
2018-05-04T06:47:16.119Z,11.73
2018-05-04T06:49:43.596Z,10.13
2018-05-04T06:52:11.057Z,11.00
2018-05-04T06:54:38.733Z,10.80
2018-05-04T06:57:06.196Z,11.27
2018-05-04T06:59:33.665Z,10.53
2018-05-04T07:02:01.159Z,11.10
2018-05-04T07:04:28.628Z,11.03
2018-05-04T07:06:56.093Z,11.93
2018-05-04T07:09:23.555Z,10.87
2018-05-04T07:11:51.013Z,11.80
2018-05-04T07:14:18.489Z,10.93
2018-05-04T07:16:45.947Z,10.17
2018-05-04T07:19:13.419Z,10.43
2018-05-04T07:21:40.893Z,12.03
2018-05-04T07:24:09.141Z,11.57
2018-05-04T07:26:36.600Z,12.00
2018-05-04T07:29:04.072Z,11.37
2018-05-04T07:31:32.288Z,11.33
2018-05-04T07:33:59.769Z,11.03
2018-05-04T07:36:27.225Z,12.70
2018-05-04T07:38:54.684Z,12.00
2018-05-04T07:41:22.132Z,10.83
2018-05-04T07:43:49.592Z,11.10
2018-05-04T07:46:17.089Z,10.40
2018-05-04T07:48:44.534Z,11.00
2018-05-04T07:51:11.975Z,10.77
2018-05-04T07:53:39.435Z,11.77
2018-05-04T07:56:06.896Z,10.63
2018-05-04T07:58:34.364Z,11.27
2018-05-04T08:01:01.809Z,10.67
2018-05-04T08:03:29.277Z,10.17
2018-05-04T08:05:56.728Z,10.77
2018-05-04T08:08:24.198Z,11.50
2018-05-04T08:10:52.558Z,11.40
2018-05-04T08:13:21.467Z,11.13
2018-05-04T08:15:49.704Z,11.53
2018-05-04T08:18:17.168Z,10.83
2018-05-04T08:20:44.624Z,11.10
2018-05-04T08:23:12.095Z,11.10
2018-05-04T08:25:39.560Z,11.03
2018-05-04T08:28:07.008Z,11.97
2018-05-04T08:30:34.473Z,12.80
2018-05-04T08:33:01.939Z,11.60
2018-05-04T08:35:30.202Z,11.07
2018-05-04T08:37:57.629Z,13.10
2018-05-04T08:40:25.091Z,12.87
2018-05-04T08:42:52.598Z,12.73
2018-05-04T08:45:20.008Z,11.70
2018-05-04T08:47:47.453Z,12.13
2018-05-04T08:50:14.903Z,12.37
2018-05-04T08:52:42.368Z,12.90
2018-05-04T08:55:09.824Z,13.90
2018-05-04T08:57:37.288Z,14.33
2018-05-04T09:00:04.745Z,13.63
2018-05-04T09:02:32.201Z,15.10
2018-05-04T09:04:59.660Z,14.80
2018-05-04T09:07:27.123Z,15.20
2018-05-04T09:09:54.601Z,15.67
2018-05-04T09:12:22.052Z,16.20
2018-05-04T09:14:49.528Z,15.40
2018-05-04T09:17:16.972Z,15.63
2018-05-04T09:19:44.513Z,18.87
2018-05-04T09:22:11.881Z,18.97
2018-05-04T09:24:39.343Z,17.07
2018-05-04T09:27:06.796Z,17.33
2018-05-04T09:29:34.256Z,19.00
2018-05-04T09:32:01.709Z,16.80
2018-05-04T09:34:29.180Z,19.97
2018-05-04T09:36:56.624Z,17.80
2018-05-04T09:39:24.092Z,18.60
2018-05-04T09:41:51.540Z,17.30
2018-05-04T09:44:18.996Z,17.83
2018-05-04T09:46:46.452Z,17.53
2018-05-04T09:49:14.040Z,18.10
2018-05-04T09:51:42.248Z,18.90
2018-05-04T09:54:09.779Z,17.50
2018-05-04T09:56:38.004Z,17.20
2018-05-04T09:59:05.465Z,18.93
2018-05-04T10:01:32.926Z,19.53
2018-05-04T10:04:00.393Z,19.50
2018-05-04T10:06:27.843Z,20.70
2018-05-04T10:08:55.313Z,20.87
2018-05-04T10:11:22.772Z,19.90
2018-05-04T10:13:50.301Z,20.07
2018-05-04T10:16:17.753Z,19.30
2018-05-04T10:18:45.217Z,18.70
2018-05-04T10:21:12.667Z,19.43
2018-05-04T10:23:40.165Z,19.00
2018-05-04T10:26:07.624Z,19.43
2018-05-04T10:28:35.080Z,18.30
2018-05-04T10:31:02.531Z,19.03
2018-05-04T10:33:29.977Z,18.80
2018-05-04T10:35:57.441Z,19.67
2018-05-04T10:38:24.970Z,19.37
2018-05-04T10:40:52.344Z,20.20
2018-05-04T10:43:19.804Z,20.40
2018-05-04T10:45:47.274Z,19.90
2018-05-04T10:48:14.720Z,18.73
2018-05-04T10:50:42.340Z,18.40
2018-05-04T10:53:09.780Z,20.40
2018-05-04T10:55:37.251Z,20.30
2018-05-04T10:58:04.692Z,18.40
2018-05-04T11:00:32.148Z,19.00
2018-05-04T11:02:59.596Z,19.17
2018-05-04T11:05:27.915Z,21.47
2018-05-04T11:07:55.306Z,19.10
2018-05-04T11:10:22.764Z,18.87
2018-05-04T11:12:50.208Z,18.73
2018-05-04T11:15:17.676Z,18.03
2018-05-04T11:17:45.125Z,19.33
2018-05-04T11:20:12.673Z,17.87
2018-05-04T11:22:42.018Z,18.23
2018-05-04T11:25:09.475Z,18.07
2018-05-04T11:27:37.692Z,18.83
2018-05-04T11:30:05.169Z,18.07
2018-05-04T11:32:32.617Z,19.67
2018-05-04T11:35:00.091Z,18.80
2018-05-04T11:37:27.539Z,17.47
2018-05-04T11:39:55.010Z,17.20
2018-05-04T11:42:22.473Z,18.73
2018-05-04T11:44:49.926Z,18.53
2018-05-04T11:47:17.372Z,17.43
2018-05-04T11:49:44.828Z,16.97
2018-05-04T11:52:12.325Z,17.10
2018-05-04T11:54:39.789Z,16.30
2018-05-04T11:57:07.232Z,17.67
2018-05-04T11:59:35.461Z,16.63
2018-05-04T12:02:02.907Z,15.87
2018-05-04T12:04:30.373Z,16.33
2018-05-04T12:06:57.822Z,15.30
2018-05-04T12:09:25.284Z,16.00
2018-05-04T12:11:52.748Z,15.80
2018-05-04T12:14:20.226Z,15.20
2018-05-04T12:16:47.680Z,15.40
2018-05-04T12:19:15.130Z,14.10
2018-05-04T12:21:42.596Z,15.20
2018-05-04T12:24:10.045Z,14.13
2018-05-04T12:26:37.509Z,17.30
2018-05-04T12:29:04.964Z,15.37
2018-05-04T12:31:32.425Z,16.37
2018-05-04T12:33:59.874Z,15.83
2018-05-04T12:36:27.332Z,16.10
2018-05-04T12:38:54.852Z,16.30
2018-05-04T12:41:22.260Z,16.90
2018-05-04T12:43:50.476Z,15.60
2018-05-04T12:46:17.937Z,16.03
2018-05-04T12:48:45.392Z,15.93
2018-05-04T12:51:12.857Z,17.10
2018-05-04T12:53:40.395Z,19.20
2018-05-04T12:56:07.763Z,17.67
2018-05-04T12:58:35.250Z,19.00
2018-05-04T13:01:02.716Z,19.20
2018-05-04T13:03:30.179Z,19.73
2018-05-04T13:05:57.633Z,19.73
2018-05-04T13:08:25.084Z,17.70
2018-05-04T13:10:52.564Z,19.07
2018-05-04T13:13:21.363Z,19.70
2018-05-04T13:15:49.590Z,18.57
2018-05-04T13:18:17.040Z,18.13
2018-05-04T13:20:44.500Z,17.30
2018-05-04T13:23:11.964Z,17.00
2018-05-04T13:25:39.423Z,17.13
2018-05-04T13:28:06.876Z,17.07
2018-05-04T13:30:34.358Z,15.50
2018-05-04T13:33:01.821Z,17.53
2018-05-04T13:35:29.283Z,16.00
2018-05-04T13:37:57.512Z,16.93
2018-05-04T13:40:24.977Z,16.67
2018-05-04T13:42:52.424Z,14.80
2018-05-04T13:45:19.888Z,15.50
2018-05-04T13:47:47.344Z,15.63
2018-05-04T13:50:14.808Z,16.63
2018-05-04T13:52:42.265Z,15.77
2018-05-04T13:55:09.737Z,14.93
2018-05-04T13:57:37.196Z,18.60
2018-05-04T14:00:04.664Z,17.00
2018-05-04T14:02:32.113Z,16.57
2018-05-04T14:04:59.579Z,16.10
2018-05-04T14:07:27.032Z,16.20
2018-05-04T14:09:54.484Z,14.73
2018-05-04T14:12:21.940Z,15.27
2018-05-04T14:14:49.399Z,15.40
2018-05-04T14:17:16.924Z,14.53
2018-05-04T14:19:44.372Z,14.73
2018-05-04T14:22:11.833Z,16.23
2018-05-04T14:24:39.289Z,15.27
2018-05-04T14:27:06.763Z,13.93
2018-05-04T14:29:34.203Z,15.00
2018-05-04T14:32:01.669Z,13.97
2018-05-04T14:34:29.137Z,14.97
2018-05-04T14:36:56.617Z,14.40
2018-05-04T14:39:24.153Z,15.67
2018-05-04T14:41:51.621Z,16.10
2018-05-04T14:44:19.126Z,13.03
2018-05-04T14:46:49.937Z,13.90
2018-05-04T14:49:18.175Z,16.50
2018-05-04T14:51:46.680Z,14.53
2018-05-04T14:54:14.143Z,15.20
2018-05-04T14:56:41.616Z,15.07
2018-05-04T14:59:10.072Z,14.17
2018-05-04T15:01:37.590Z,16.00
2018-05-04T15:04:05.919Z,16.07
2018-05-04T15:06:34.236Z,16.40
2018-05-04T15:09:02.106Z,16.30
2018-05-04T15:11:29.791Z,16.33
2018-05-04T15:13:57.421Z,16.50
2018-05-04T15:16:24.921Z,15.30
2018-05-04T15:18:52.377Z,15.63
2018-05-04T15:21:20.815Z,16.17
2018-05-04T15:23:48.346Z,17.63
2018-05-04T15:26:16.663Z,16.30
2018-05-04T15:28:44.175Z,17.47
2018-05-04T15:31:12.508Z,15.90
2018-05-04T15:33:39.960Z,15.93
2018-05-04T15:36:08.240Z,18.03
2018-05-04T15:38:35.732Z,17.83
2018-05-04T15:41:03.366Z,17.20
2018-05-04T15:43:30.907Z,18.27
2018-05-04T15:45:58.457Z,17.93
2018-05-04T15:48:31.570Z,17.23
2018-05-04T15:51:04.778Z,17.20
2018-05-04T15:53:32.240Z,16.40
2018-05-04T15:55:59.715Z,16.27
2018-05-04T15:58:27.192Z,17.97
2018-05-04T16:00:55.448Z,15.30
2018-05-04T16:03:22.922Z,17.53
2018-05-04T16:05:51.165Z,15.73
2018-05-04T16:08:18.730Z,15.80
2018-05-04T16:10:46.220Z,15.20
2018-05-04T16:13:14.480Z,16.10
2018-05-04T16:15:42.226Z,15.50
2018-05-04T16:18:09.701Z,15.10
2018-05-04T16:20:38.126Z,15.13
2018-05-04T16:23:05.633Z,16.13
2018-05-04T16:25:33.935Z,14.10
2018-05-04T16:28:01.494Z,15.07
2018-05-04T16:30:30.922Z,14.47
2018-05-04T16:32:58.383Z,13.40
2018-05-04T16:35:25.881Z,13.50
2018-05-04T16:37:53.345Z,13.90
2018-05-04T16:40:20.819Z,14.77
2018-05-04T16:42:49.082Z,12.77
2018-05-04T16:45:16.553Z,15.07
2018-05-04T16:47:50.579Z,13.73
2018-05-04T16:50:18.059Z,13.73
2018-05-04T16:52:45.541Z,13.37
2018-05-04T16:55:13.162Z,14.10
2018-05-04T16:57:41.412Z,13.23
2018-05-04T17:00:09.653Z,12.63
2018-05-04T17:02:37.134Z,13.53
2018-05-04T17:05:04.611Z,12.33
2018-05-04T17:07:32.080Z,14.83
2018-05-04T17:09:59.538Z,13.10
2018-05-04T17:12:27.017Z,13.97
2018-05-04T17:14:54.479Z,13.00
2018-05-04T17:17:21.954Z,13.47
2018-05-04T17:19:49.408Z,15.20
2018-05-04T17:22:16.914Z,14.53
2018-05-04T17:24:45.137Z,12.80
2018-05-04T17:27:12.607Z,15.60
2018-05-04T17:29:40.088Z,14.77
2018-05-04T17:32:08.351Z,15.20
2018-05-04T17:34:35.860Z,16.07
2018-05-04T17:37:03.352Z,14.40
2018-05-04T17:39:30.797Z,15.73
2018-05-04T17:41:58.284Z,14.80
2018-05-04T17:44:25.752Z,15.50
2018-05-04T17:46:53.214Z,14.20
2018-05-04T17:49:21.446Z,15.03
2018-05-04T17:51:52.069Z,15.53
2018-05-04T17:54:19.538Z,16.80
2018-05-04T17:56:48.300Z,17.10
2018-05-04T17:59:15.753Z,17.07
2018-05-04T18:01:43.224Z,16.20
2018-05-04T18:04:10.676Z,17.90
2018-05-04T18:06:38.142Z,16.53
2018-05-04T18:09:05.609Z,16.30
2018-05-04T18:11:33.083Z,15.83
2018-05-04T18:14:00.548Z,16.60
2018-05-04T18:16:28.000Z,16.67
2018-05-04T18:18:55.505Z,17.47
2018-05-04T18:21:22.970Z,16.67
2018-05-04T18:23:50.428Z,17.93
2018-05-04T18:26:17.894Z,16.33
2018-05-04T18:28:46.120Z,16.20
2018-05-04T18:31:14.372Z,19.13
2018-05-04T18:33:41.836Z,19.13
2018-05-04T18:36:09.299Z,18.60
2018-05-04T18:38:36.756Z,18.67
2018-05-04T18:41:04.220Z,18.83
2018-05-04T18:43:32.449Z,19.47
2018-05-04T18:45:59.901Z,19.70
2018-05-04T18:48:28.134Z,19.53
2018-05-04T18:50:56.411Z,17.33
2018-05-04T18:53:23.870Z,20.80
2018-05-04T18:55:52.096Z,19.30
2018-05-04T18:58:19.560Z,18.40
2018-05-04T19:00:47.024Z,19.77
2018-05-04T19:03:20.223Z,20.87
2018-05-04T19:05:47.685Z,20.30
2018-05-04T19:08:15.147Z,18.97
2018-05-04T19:10:42.609Z,20.37
2018-05-04T19:13:10.081Z,20.60
2018-05-04T19:15:38.295Z,21.50
2018-05-04T19:18:05.809Z,20.30
2018-05-04T19:20:35.069Z,19.07
2018-05-04T19:23:02.505Z,20.27
2018-05-04T19:25:29.965Z,21.00
2018-05-04T19:27:57.429Z,20.27
2018-05-04T19:30:24.895Z,18.70
2018-05-04T19:32:52.360Z,19.10
2018-05-04T19:35:19.851Z,20.80
2018-05-04T19:37:47.305Z,20.70
2018-05-04T19:40:14.754Z,19.43
2018-05-04T19:42:42.219Z,20.00
2018-05-04T19:45:10.440Z,21.00
2018-05-04T19:47:37.910Z,21.33
2018-05-04T19:50:05.365Z,21.43
2018-05-04T19:52:32.847Z,20.93
2018-05-04T19:55:00.304Z,21.00
2018-05-04T19:57:27.759Z,21.00
2018-05-04T19:59:55.219Z,20.40
2018-05-04T20:02:22.684Z,19.30
2018-05-04T20:04:50.141Z,21.20
2018-05-04T20:07:17.601Z,20.10
2018-05-04T20:09:45.043Z,20.93
2018-05-04T20:12:12.496Z,19.73
2018-05-04T20:14:39.952Z,19.83
2018-05-04T20:17:07.399Z,20.50
2018-05-04T20:19:34.871Z,19.03
2018-05-04T20:22:02.325Z,21.33
2018-05-04T20:24:29.790Z,22.37
2018-05-04T20:26:57.230Z,21.47
2018-05-04T20:29:24.688Z,20.80
2018-05-04T20:31:52.130Z,22.53
2018-05-04T20:34:19.588Z,21.33
2018-05-04T20:36:47.034Z,21.00
2018-05-04T20:39:14.492Z,22.40
2018-05-04T20:41:41.943Z,21.63
2018-05-04T20:44:09.424Z,23.27
2018-05-04T20:46:36.824Z,21.27
2018-05-04T20:49:05.048Z,23.27
2018-05-04T20:51:32.499Z,23.30
2018-05-04T20:53:59.949Z,21.70
2018-05-04T20:56:27.396Z,23.17
2018-05-04T20:58:54.925Z,22.57
2018-05-04T21:01:22.301Z,22.63
2018-05-04T21:03:49.755Z,22.33
2018-05-04T21:06:17.215Z,23.33
2018-05-04T21:08:45.427Z,23.47
2018-05-04T21:11:12.867Z,23.30
2018-05-04T21:13:40.319Z,23.47
2018-05-04T21:16:07.779Z,22.23
2018-05-04T21:18:35.238Z,23.40
2018-05-04T21:21:02.681Z,21.83
2018-05-04T21:23:30.137Z,23.30
2018-05-04T21:25:57.585Z,22.80
2018-05-04T21:28:25.039Z,22.60
2018-05-04T21:30:52.482Z,23.10
2018-05-04T21:33:20.703Z,22.50
2018-05-04T21:35:48.230Z,23.73
2018-05-04T21:38:15.607Z,22.17
2018-05-04T21:40:43.062Z,23.13
2018-05-04T21:43:10.515Z,23.23
2018-05-04T21:45:37.972Z,24.13
2018-05-04T21:48:05.428Z,22.50
2018-05-04T21:50:32.863Z,26.03
2018-05-04T21:53:01.091Z,22.67
2018-05-04T21:55:28.527Z,23.67
2018-05-04T21:57:55.996Z,22.27
2018-05-04T22:00:23.443Z,24.07
2018-05-04T22:02:50.892Z,23.77
2018-05-04T22:05:18.349Z,21.90
2018-05-04T22:07:45.833Z,23.50
2018-05-04T22:10:13.293Z,24.73
2018-05-04T22:12:40.760Z,24.10
2018-05-04T22:15:08.233Z,23.87
2018-05-04T22:17:35.707Z,23.10
2018-05-04T22:20:03.939Z,23.23
2018-05-04T22:22:31.392Z,23.30
2018-05-04T22:24:58.904Z,25.80
2018-05-04T22:27:26.400Z,25.50
2018-05-04T22:29:53.897Z,24.20
2018-05-04T22:32:22.142Z,24.17
2018-05-04T22:34:49.655Z,24.40
2018-05-04T22:37:17.154Z,24.77
2018-05-04T22:39:44.663Z,25.97
2018-05-04T22:42:12.143Z,23.70
2018-05-04T22:44:39.675Z,25.20
2018-05-04T22:47:07.171Z,26.13
2018-05-04T22:49:34.675Z,26.60
2018-05-04T22:52:02.933Z,24.47
2018-05-04T22:54:30.439Z,25.83
2018-05-04T22:56:57.898Z,25.20
2018-05-04T22:59:25.466Z,25.40
2018-05-04T23:01:53.659Z,25.40
2018-05-04T23:04:21.124Z,24.23
2018-05-04T23:06:48.589Z,25.27
2018-05-04T23:09:16.060Z,24.50
2018-05-04T23:11:43.515Z,25.83
2018-05-04T23:14:10.977Z,25.40
2018-05-04T23:16:38.452Z,26.07
2018-05-04T23:19:06.691Z,26.20
2018-05-04T23:21:34.146Z,24.73
2018-05-04T23:24:01.631Z,23.10
2018-05-04T23:26:29.079Z,26.23
2018-05-04T23:28:56.556Z,24.63
2018-05-04T23:31:24.780Z,24.20
2018-05-04T23:33:52.247Z,24.93
2018-05-04T23:36:19.715Z,23.57
2018-05-04T23:38:47.187Z,24.50
2018-05-04T23:41:14.668Z,24.60
2018-05-04T23:43:42.895Z,25.60
2018-05-04T23:46:10.352Z,24.23
2018-05-04T23:48:37.824Z,23.50
2018-05-04T23:51:05.276Z,24.30
2018-05-04T23:53:32.737Z,23.00
2018-05-04T23:56:00.202Z,22.53
2018-05-04T23:58:28.431Z,23.03
